createdAt,value
2018-01-29T00:01:30.769Z,96.70
2018-01-29T00:03:59.384Z,96.70
2018-01-29T00:06:26.923Z,96.90
2018-01-29T00:08:55.108Z,96.80
2018-01-29T00:11:24.536Z,96.90
2018-01-29T00:13:52.126Z,97.00
2018-01-29T00:16:20.495Z,97.10
2018-01-29T00:18:48.020Z,97.00
2018-01-29T00:21:15.542Z,97.10
2018-01-29T00:23:44.861Z,97.30
2018-01-29T00:26:13.188Z,97.30
2018-01-29T00:28:40.735Z,97.20
2018-01-29T00:31:08.257Z,97.30
2018-01-29T00:33:36.570Z,97.30
2018-01-29T00:36:04.620Z,97.30
2018-01-29T00:38:32.156Z,97.40
2018-01-29T00:40:59.687Z,97.30
2018-01-29T00:43:27.269Z,97.40
2018-01-29T00:45:54.914Z,97.50
2018-01-29T00:48:22.451Z,97.40
2018-01-29T00:50:51.499Z,97.40
2018-01-29T00:53:19.092Z,97.40
2018-01-29T00:55:46.672Z,97.30
2018-01-29T00:58:14.994Z,97.50
2018-01-29T01:00:42.523Z,97.30
2018-01-29T01:03:10.626Z,97.40
2018-01-29T01:05:38.931Z,97.20
2018-01-29T01:08:06.541Z,97.20
2018-01-29T01:10:34.676Z,97.30
2018-01-29T01:13:02.210Z,97.10
2018-01-29T01:15:30.547Z,97.20
2018-01-29T01:17:58.076Z,97.10
2018-01-29T01:20:25.595Z,97.10
2018-01-29T01:22:53.174Z,97.20
2018-01-29T01:25:21.688Z,97.20
2018-01-29T01:27:49.499Z,97.20
2018-01-29T01:30:17.067Z,97.10
2018-01-29T01:32:44.580Z,97.20
2018-01-29T01:35:13.400Z,97.10
2018-01-29T01:37:41.313Z,97.10
2018-01-29T01:40:08.901Z,97.10
2018-01-29T01:42:37.244Z,97.20
2018-01-29T01:45:04.792Z,97.20
2018-01-29T01:47:32.655Z,97.40
2018-01-29T01:50:00.172Z,97.40
2018-01-29T01:52:28.651Z,97.40
2018-01-29T01:54:56.204Z,97.30
2018-01-29T01:57:23.815Z,97.40
2018-01-29T01:59:51.386Z,97.40
2018-01-29T02:02:19.004Z,97.40
2018-01-29T02:04:47.560Z,97.30
2018-01-29T02:07:15.101Z,97.40
2018-01-29T02:09:43.391Z,97.40
2018-01-29T02:12:11.348Z,97.40
2018-01-29T02:14:40.527Z,97.40
2018-01-29T02:17:08.858Z,97.50
2018-01-29T02:19:38.016Z,97.60
2018-01-29T02:22:05.557Z,97.30
2018-01-29T02:24:33.104Z,97.30
2018-01-29T02:27:01.492Z,97.20
2018-01-29T02:29:29.033Z,97.20
2018-01-29T02:31:56.563Z,97.10
2018-01-29T02:34:24.110Z,97.30
2018-01-29T02:36:51.711Z,97.30
2018-01-29T02:39:21.100Z,97.40
2018-01-29T02:41:49.454Z,97.40
2018-01-29T02:44:18.361Z,97.40
2018-01-29T02:46:46.841Z,97.50
2018-01-29T02:49:14.772Z,97.40
2018-01-29T02:51:44.023Z,97.50
2018-01-29T02:54:11.552Z,97.40
2018-01-29T02:56:40.003Z,97.40
2018-01-29T02:59:08.251Z,97.40
2018-01-29T03:01:35.805Z,97.40
2018-01-29T03:04:04.352Z,97.40
2018-01-29T03:06:32.647Z,97.40
2018-01-29T03:09:00.177Z,97.40
2018-01-29T03:11:27.687Z,97.40
2018-01-29T03:13:55.235Z,97.40
2018-01-29T03:16:22.773Z,97.50
2018-01-29T03:18:50.282Z,97.50
2018-01-29T03:21:18.034Z,97.50
2018-01-29T03:23:46.693Z,97.50
2018-01-29T03:26:14.240Z,97.50
2018-01-29T03:28:41.787Z,97.40
2018-01-29T03:31:09.293Z,97.40
2018-01-29T03:33:36.966Z,97.30
2018-01-29T03:36:04.483Z,97.30
2018-01-29T03:38:32.023Z,97.40
2018-01-29T03:40:59.532Z,97.30
2018-01-29T03:43:27.049Z,97.40
2018-01-29T03:45:55.327Z,97.40
2018-01-29T03:48:23.614Z,97.30
2018-01-29T03:50:51.421Z,97.30
2018-01-29T03:53:19.005Z,97.20
2018-01-29T03:55:46.532Z,97.30
2018-01-29T03:58:14.075Z,97.20
2018-01-29T04:00:42.385Z,97.20
2018-01-29T04:03:09.944Z,97.20
2018-01-29T04:05:38.171Z,97.60
2018-01-29T04:08:06.196Z,97.40
2018-01-29T04:10:34.924Z,97.50
2018-01-29T04:13:02.474Z,97.40
2018-01-29T04:15:30.301Z,97.40
2018-01-29T04:17:59.541Z,97.30
2018-01-29T04:20:27.068Z,97.30
2018-01-29T04:22:56.275Z,97.40
2018-01-29T04:25:24.582Z,97.40
2018-01-29T04:27:52.112Z,97.40
2018-01-29T04:30:20.407Z,97.30
2018-01-29T04:32:48.856Z,97.30
2018-01-29T04:35:17.176Z,97.30
2018-01-29T04:37:45.463Z,97.30
2018-01-29T04:40:12.996Z,97.30
2018-01-29T04:42:40.528Z,97.40
2018-01-29T04:45:08.127Z,97.40
2018-01-29T04:47:35.630Z,97.40
2018-01-29T04:50:03.146Z,97.30
2018-01-29T04:52:30.775Z,97.10
2018-01-29T04:54:58.290Z,97.10
2018-01-29T04:57:25.826Z,97.20
2018-01-29T04:59:53.381Z,97.20
2018-01-29T05:02:20.924Z,97.20
2018-01-29T05:04:48.448Z,97.20
2018-01-29T05:07:16.063Z,97.00
2018-01-29T05:09:43.642Z,96.90
2018-01-29T05:12:11.222Z,97.00
2018-01-29T05:14:38.757Z,96.80
2018-01-29T05:17:06.293Z,97.10
2018-01-29T05:19:34.710Z,97.00
2018-01-29T05:22:02.252Z,97.00
2018-01-29T05:24:30.571Z,96.90
2018-01-29T05:26:58.112Z,96.90
2018-01-29T05:29:25.666Z,96.80
2018-01-29T05:31:53.253Z,96.80
2018-01-29T05:34:21.984Z,96.80
2018-01-29T05:37:06.355Z,96.80
2018-01-29T05:39:34.657Z,97.20
2018-01-29T05:42:02.967Z,97.10
2018-01-29T05:44:30.525Z,97.10
2018-01-29T05:46:58.065Z,97.00
2018-01-29T05:49:26.390Z,97.10
2018-01-29T05:51:53.916Z,97.10
2018-01-29T05:54:22.195Z,97.10
2018-01-29T05:56:50.560Z,97.10
2018-01-29T05:59:19.731Z,97.40
2018-01-29T06:01:47.319Z,97.00
2018-01-29T06:04:14.860Z,97.00
2018-01-29T06:06:42.421Z,97.10
2018-01-29T06:09:10.174Z,97.10
2018-01-29T06:11:38.004Z,97.10
2018-01-29T06:14:05.712Z,97.20
2018-01-29T06:16:33.430Z,97.10
2018-01-29T06:19:00.964Z,97.10
2018-01-29T06:21:29.289Z,97.20
2018-01-29T06:23:57.593Z,97.10
2018-01-29T06:26:25.164Z,97.10
2018-01-29T06:28:52.742Z,97.00
2018-01-29T06:31:20.265Z,97.00
2018-01-29T06:33:47.968Z,96.80
2018-01-29T06:36:15.491Z,97.00
2018-01-29T06:38:43.924Z,97.00
2018-01-29T06:41:11.444Z,97.00
2018-01-29T06:43:38.975Z,96.80
2018-01-29T06:46:06.513Z,96.90
2018-01-29T06:48:34.075Z,96.60
2018-01-29T06:51:02.484Z,96.50
2018-01-29T06:53:29.997Z,96.50
2018-01-29T06:55:58.316Z,96.40
2018-01-29T06:58:25.835Z,96.20
2018-01-29T07:00:53.441Z,96.20
2018-01-29T07:03:20.993Z,96.60
2018-01-29T07:05:50.252Z,96.10
2018-01-29T07:08:17.789Z,96.10
2018-01-29T07:10:45.321Z,96.10
2018-01-29T07:13:13.648Z,96.10
2018-01-29T07:15:41.184Z,96.10
2018-01-29T07:18:08.720Z,96.10
2018-01-29T07:20:37.024Z,96.60
2018-01-29T07:23:04.543Z,96.50
2018-01-29T07:25:32.109Z,96.70
2018-01-29T07:27:59.648Z,96.40
2018-01-29T07:30:27.199Z,96.50
2018-01-29T07:32:54.787Z,96.60
2018-01-29T07:35:22.543Z,96.60
2018-01-29T07:37:50.125Z,96.60
2018-01-29T07:40:18.408Z,96.60
2018-01-29T07:42:46.717Z,96.40
2018-01-29T07:45:16.382Z,96.40
2018-01-29T07:47:44.201Z,96.40
2018-01-29T07:50:11.718Z,96.20
2018-01-29T07:52:39.304Z,96.30
2018-01-29T07:55:06.836Z,96.20
2018-01-29T07:57:34.369Z,96.30
2018-01-29T08:00:01.930Z,96.50
2018-01-29T08:02:29.512Z,96.50
2018-01-29T08:04:57.087Z,96.60
2018-01-29T08:07:26.112Z,96.40
2018-01-29T08:09:53.653Z,96.40
2018-01-29T08:12:21.991Z,96.30
2018-01-29T08:14:49.542Z,96.30
2018-01-29T08:17:17.093Z,96.10
2018-01-29T08:19:44.746Z,95.80
2018-01-29T08:22:12.328Z,95.40
2018-01-29T08:24:39.896Z,95.30
2018-01-29T08:27:08.151Z,95.50
2018-01-29T08:29:36.470Z,95.40
2018-01-29T08:32:04.008Z,95.40
2018-01-29T08:34:31.547Z,95.30
2018-01-29T08:36:59.844Z,95.40
2018-01-29T08:39:27.385Z,95.30
2018-01-29T08:41:55.199Z,95.40
2018-01-29T08:44:22.790Z,95.60
2018-01-29T08:46:50.433Z,95.70
2018-01-29T08:49:17.960Z,95.70
2018-01-29T08:51:45.520Z,95.60
2018-01-29T08:54:13.086Z,95.50
2018-01-29T08:56:40.627Z,95.90
2018-01-29T08:59:08.160Z,96.00
2018-01-29T09:01:35.709Z,96.20
2018-01-29T09:04:03.499Z,96.30
2018-01-29T09:06:31.706Z,96.30
2018-01-29T09:08:59.236Z,96.10
2018-01-29T09:11:26.771Z,95.90
2018-01-29T09:13:55.992Z,95.40
2018-01-29T09:16:24.274Z,95.10
2018-01-29T09:18:51.905Z,95.10
2018-01-29T09:21:19.415Z,94.90
2018-01-29T09:23:47.100Z,94.90
2018-01-29T09:26:14.624Z,94.70
2018-01-29T09:28:43.756Z,94.50
2018-01-29T09:31:11.350Z,94.40
2018-01-29T09:33:38.884Z,94.50
2018-01-29T09:36:06.410Z,94.60
2018-01-29T09:38:33.948Z,94.20
2018-01-29T09:41:01.485Z,93.90
2018-01-29T09:43:29.041Z,94.20
2018-01-29T09:45:56.562Z,94.20
2018-01-29T09:48:24.102Z,94.20
2018-01-29T09:50:51.650Z,94.40
2018-01-29T09:53:19.186Z,94.30
2018-01-29T09:55:47.522Z,94.50
2018-01-29T09:58:15.055Z,94.50
2018-01-29T10:00:42.620Z,94.20
2018-01-29T10:03:10.171Z,94.20
2018-01-29T10:05:37.702Z,94.20
2018-01-29T10:08:05.502Z,94.20
2018-01-29T10:10:33.033Z,94.10
2018-01-29T10:13:00.566Z,93.90
2018-01-29T10:15:28.086Z,93.80
2018-01-29T10:17:56.370Z,93.80
2018-01-29T10:20:24.674Z,93.50
2018-01-29T10:22:52.202Z,93.50
2018-01-29T10:25:19.729Z,93.40
2018-01-29T10:27:48.029Z,93.50
2018-01-29T10:30:15.558Z,93.50
2018-01-29T10:32:43.102Z,93.60
2018-01-29T10:35:11.448Z,93.50
2018-01-29T10:37:39.074Z,93.60
2018-01-29T10:40:06.639Z,93.70
2018-01-29T10:42:34.162Z,93.50
2018-01-29T10:45:01.700Z,93.60
2018-01-29T10:47:30.017Z,93.70
2018-01-29T10:49:58.360Z,93.60
2018-01-29T10:52:25.902Z,93.50
2018-01-29T10:54:53.461Z,93.50
2018-01-29T10:57:21.013Z,93.40
2018-01-29T10:59:48.594Z,93.30
2018-01-29T11:02:16.108Z,93.00
2018-01-29T11:04:43.643Z,93.00
2018-01-29T11:07:11.167Z,93.10
2018-01-29T11:09:38.916Z,93.20
2018-01-29T11:12:06.456Z,93.40
2018-01-29T11:14:34.734Z,93.60
2018-01-29T11:17:02.243Z,93.70
2018-01-29T11:19:30.583Z,94.20
2018-01-29T11:21:58.123Z,94.20
2018-01-29T11:24:25.652Z,94.30
2018-01-29T11:26:53.961Z,94.40
2018-01-29T11:29:21.468Z,94.40
2018-01-29T11:31:49.036Z,94.40
2018-01-29T11:34:16.561Z,94.30
2018-01-29T11:36:44.084Z,94.40
2018-01-29T11:39:13.247Z,94.30
2018-01-29T11:41:40.780Z,94.30
2018-01-29T11:44:08.308Z,94.40
2018-01-29T11:46:35.917Z,94.60
2018-01-29T11:49:03.427Z,94.80
2018-01-29T11:51:30.994Z,94.40
2018-01-29T11:53:58.571Z,94.50
2018-01-29T11:56:26.101Z,94.40
2018-01-29T11:58:53.653Z,94.70
2018-01-29T12:01:21.167Z,94.40
2018-01-29T12:03:48.688Z,93.80
2018-01-29T12:06:16.194Z,93.80
2018-01-29T12:08:43.711Z,93.30
2018-01-29T12:11:11.269Z,93.40
2018-01-29T12:13:38.798Z,93.50
2018-01-29T12:16:06.302Z,93.20
2018-01-29T12:18:33.821Z,92.60
2018-01-29T12:21:02.140Z,92.10
2018-01-29T12:23:29.680Z,92.20
2018-01-29T12:25:58.034Z,91.80
2018-01-29T12:28:25.544Z,91.80
2018-01-29T12:30:53.084Z,91.90
2018-01-29T12:33:21.373Z,92.40
2018-01-29T12:35:49.685Z,92.10
2018-01-29T12:38:17.175Z,91.70
2018-01-29T12:40:44.697Z,91.70
2018-01-29T12:43:12.238Z,91.50
2018-01-29T12:45:39.756Z,90.90
2018-01-29T12:48:07.291Z,90.80
2018-01-29T12:50:34.820Z,90.50
2018-01-29T12:53:02.404Z,90.60
2018-01-29T12:55:30.698Z,90.20
2018-01-29T12:57:58.979Z,90.00
2018-01-29T13:00:27.289Z,90.20
2018-01-29T13:02:54.822Z,90.20
2018-01-29T13:05:23.126Z,90.70
2018-01-29T13:07:50.644Z,90.60
2018-01-29T13:10:18.165Z,90.40
2018-01-29T13:12:45.719Z,90.20
2018-01-29T13:15:14.010Z,90.20
2018-01-29T13:17:41.533Z,90.20
2018-01-29T13:20:09.818Z,90.00
2018-01-29T13:22:38.113Z,90.00
2018-01-29T13:25:06.684Z,89.80
2018-01-29T13:27:34.194Z,89.80
2018-01-29T13:30:01.746Z,89.70
2018-01-29T13:32:29.306Z,89.80
2018-01-29T13:34:56.849Z,89.20
2018-01-29T13:37:25.228Z,88.70
2018-01-29T13:39:52.749Z,88.70
2018-01-29T13:42:20.271Z,88.50
2018-01-29T13:44:48.974Z,88.70
2018-01-29T13:47:17.262Z,88.60
2018-01-29T13:49:44.785Z,88.60
2018-01-29T13:52:12.381Z,89.10
2018-01-29T13:54:40.663Z,89.00
2018-01-29T13:57:08.221Z,88.90
2018-01-29T13:59:36.514Z,89.10
2018-01-29T14:02:04.149Z,88.90
2018-01-29T14:04:31.657Z,89.00
2018-01-29T14:07:00.048Z,89.20
2018-01-29T14:09:27.571Z,89.20
2018-01-29T14:11:55.229Z,89.20
2018-01-29T14:14:22.806Z,88.80
2018-01-29T14:16:50.335Z,88.80
2018-01-29T14:19:17.940Z,88.70
2018-01-29T14:21:46.262Z,89.30
2018-01-29T14:24:13.905Z,89.20
2018-01-29T14:26:42.200Z,89.00
2018-01-29T14:29:09.717Z,89.00
2018-01-29T14:31:37.219Z,89.60
2018-01-29T14:34:04.885Z,89.50
2018-01-29T14:36:33.171Z,89.40
2018-01-29T14:39:01.461Z,89.80
2018-01-29T14:41:28.981Z,89.80
2018-01-29T14:43:56.593Z,89.80
2018-01-29T14:46:24.147Z,89.90
2018-01-29T14:48:52.579Z,90.50
2018-01-29T14:51:20.104Z,90.50
2018-01-29T14:53:47.640Z,90.80
2018-01-29T14:56:15.161Z,90.80
2018-01-29T14:58:42.728Z,91.00
2018-01-29T15:01:10.262Z,91.20
2018-01-29T15:03:38.367Z,91.40
2018-01-29T15:06:06.085Z,91.40
2018-01-29T15:08:33.592Z,91.50
2018-01-29T15:11:01.131Z,91.50
2018-01-29T15:13:29.463Z,91.70
2018-01-29T15:15:57.728Z,91.70
2018-01-29T15:18:26.007Z,91.60
2018-01-29T15:20:53.539Z,91.80
2018-01-29T15:23:21.892Z,92.10
2018-01-29T15:25:49.407Z,92.10
2018-01-29T15:28:16.918Z,92.30
2018-01-29T15:30:45.206Z,93.10
2018-01-29T15:33:12.726Z,92.80
2018-01-29T15:35:40.300Z,92.90
2018-01-29T15:38:07.851Z,93.10
2018-01-29T15:40:35.378Z,92.90
2018-01-29T15:43:02.916Z,93.10
2018-01-29T15:45:32.193Z,93.20
2018-01-29T15:47:59.899Z,93.10
2018-01-29T15:50:27.426Z,93.20
2018-01-29T15:52:54.958Z,92.90
2018-01-29T15:55:23.267Z,92.60
2018-01-29T15:57:50.796Z,92.60
2018-01-29T16:00:19.096Z,92.40
2018-01-29T16:02:46.633Z,92.30
2018-01-29T16:05:14.161Z,92.30
2018-01-29T16:07:41.694Z,92.20
2018-01-29T16:10:09.237Z,91.90
2018-01-29T16:12:37.563Z,92.20
2018-01-29T16:15:05.105Z,91.80
2018-01-29T16:17:32.635Z,91.90
2018-01-29T16:20:00.147Z,91.70
2018-01-29T16:22:27.698Z,91.60
2018-01-29T16:24:56.027Z,91.30
2018-01-29T16:27:23.643Z,91.30
2018-01-29T16:29:51.980Z,91.30
2018-01-29T16:32:20.447Z,91.30
2018-01-29T16:34:48.677Z,91.20
2018-01-29T16:37:16.212Z,91.30
2018-01-29T16:39:43.846Z,91.50
2018-01-29T16:42:11.393Z,91.40
2018-01-29T16:44:39.704Z,91.10
2018-01-29T16:47:07.963Z,90.80
2018-01-29T16:49:35.501Z,90.80
2018-01-29T16:52:03.172Z,90.60
2018-01-29T16:54:30.701Z,90.80
2018-01-29T16:56:58.281Z,90.70
2018-01-29T16:59:26.749Z,90.30
2018-01-29T17:01:54.379Z,90.30
2018-01-29T17:04:22.368Z,90.20
2018-01-29T17:06:49.900Z,90.40
2018-01-29T17:09:18.607Z,90.50
2018-01-29T17:11:47.545Z,90.70
2018-01-29T17:14:15.093Z,90.70
2018-01-29T17:16:42.614Z,90.70
2018-01-29T17:19:10.204Z,90.60
2018-01-29T17:21:37.752Z,90.70
2018-01-29T17:24:06.042Z,90.70
2018-01-29T17:26:34.334Z,90.70
2018-01-29T17:29:01.871Z,90.70
2018-01-29T17:31:29.676Z,90.70
2018-01-29T17:33:57.217Z,90.70
2018-01-29T17:36:25.512Z,90.70
2018-01-29T17:38:52.997Z,90.70
2018-01-29T17:41:20.529Z,90.70
2018-01-29T17:43:49.166Z,90.70
2018-01-29T17:46:16.994Z,90.70
2018-01-29T17:48:45.283Z,90.70
2018-01-29T17:51:12.846Z,90.70
2018-01-29T17:53:41.137Z,90.10
2018-01-29T17:56:11.139Z,90.10
2018-01-29T17:58:38.898Z,90.40
2018-01-29T18:01:07.238Z,90.50
2018-01-29T18:03:34.747Z,90.40
2018-01-29T18:06:02.272Z,90.50
2018-01-29T18:08:29.779Z,90.60
2018-01-29T18:10:58.193Z,90.40
2018-01-29T18:13:25.720Z,90.30
2018-01-29T18:15:53.261Z,90.20
2018-01-29T18:18:20.789Z,90.00
2018-01-29T18:20:49.332Z,90.00
2018-01-29T18:23:16.885Z,89.80
2018-01-29T18:25:44.421Z,89.50
2018-01-29T18:28:11.960Z,89.80
2018-01-29T18:30:40.248Z,90.00
2018-01-29T18:33:07.812Z,90.00
2018-01-29T18:35:35.567Z,90.00
2018-01-29T18:38:04.040Z,89.90
2018-01-29T18:40:31.575Z,90.00
2018-01-29T18:42:59.801Z,89.90
2018-01-29T18:45:28.860Z,89.50
2018-01-29T18:47:58.256Z,89.50
2018-01-29T18:50:25.825Z,89.90
2018-01-29T18:52:54.166Z,89.90
2018-01-29T18:55:22.454Z,89.90
2018-01-29T18:57:50.063Z,89.90
2018-01-29T19:00:17.622Z,89.50
2018-01-29T19:02:45.127Z,89.50
2018-01-29T19:05:13.424Z,89.20
2018-01-29T19:07:41.714Z,89.30
2018-01-29T19:10:09.393Z,89.30
2018-01-29T19:12:36.956Z,89.50
2018-01-29T19:15:04.556Z,89.70
2018-01-29T19:17:32.129Z,89.20
2018-01-29T19:19:59.670Z,89.50
2018-01-29T19:22:27.606Z,89.00
2018-01-29T19:24:55.493Z,88.90
2018-01-29T19:27:23.864Z,88.80
2018-01-29T19:29:52.168Z,88.60
2018-01-29T19:32:19.707Z,88.40
2018-01-29T19:34:48.002Z,88.30
2018-01-29T19:37:15.866Z,88.20
2018-01-29T19:39:44.169Z,88.30
2018-01-29T19:42:11.701Z,88.20
2018-01-29T19:44:40.023Z,87.90
2018-01-29T19:47:07.600Z,88.00
2018-01-29T19:49:35.139Z,87.80
2018-01-29T19:52:02.699Z,87.70
2018-01-29T19:54:31.017Z,87.90
2018-01-29T19:56:59.558Z,87.90
2018-01-29T19:59:27.852Z,88.40
2018-01-29T20:01:55.440Z,88.30
2018-01-29T20:04:22.927Z,88.50
2018-01-29T20:06:51.127Z,88.80
2018-01-29T20:09:18.678Z,88.70
2018-01-29T20:11:46.218Z,88.80
2018-01-29T20:14:13.814Z,88.70
2018-01-29T20:16:42.112Z,88.80
2018-01-29T20:19:09.841Z,89.60
2018-01-29T20:21:38.267Z,88.70
2018-01-29T20:24:05.824Z,88.90
2018-01-29T20:26:33.370Z,89.10
2018-01-29T20:29:00.973Z,89.10
2018-01-29T20:31:30.456Z,89.00
2018-01-29T20:33:58.000Z,88.90
2018-01-29T20:36:25.574Z,89.00
2018-01-29T20:38:53.109Z,89.30
2018-01-29T20:41:20.847Z,89.60
2018-01-29T20:43:48.461Z,89.80
2018-01-29T20:46:16.155Z,89.90
2018-01-29T20:48:45.228Z,90.10
2018-01-29T20:51:12.813Z,90.10
2018-01-29T20:53:41.251Z,90.00
2018-01-29T20:56:09.691Z,90.00
2018-01-29T20:58:37.258Z,90.10
2018-01-29T21:01:07.298Z,90.10
2018-01-29T21:03:35.627Z,90.30
2018-01-29T21:06:03.291Z,90.40
2018-01-29T21:08:30.844Z,90.60
2018-01-29T21:10:58.413Z,90.70
2018-01-29T21:13:27.425Z,90.90
2018-01-29T21:15:54.956Z,91.10
2018-01-29T21:18:23.350Z,91.10
2018-01-29T21:20:51.659Z,91.60
2018-01-29T21:23:19.244Z,91.50
2018-01-29T21:25:48.250Z,91.70
2018-01-29T21:28:15.832Z,91.90
2018-01-29T21:30:43.348Z,92.00
2018-01-29T21:33:11.036Z,92.10
2018-01-29T21:35:38.740Z,92.40
2018-01-29T21:38:07.076Z,92.50
2018-01-29T21:40:35.129Z,92.40
2018-01-29T21:43:03.479Z,92.80
2018-01-29T21:45:31.211Z,92.80
2018-01-29T21:47:58.751Z,92.70
2018-01-29T21:50:27.254Z,92.80
2018-01-29T21:52:54.815Z,93.10
2018-01-29T21:55:22.340Z,93.00
2018-01-29T21:57:50.645Z,93.10
2018-01-29T22:00:19.251Z,93.30
2018-01-29T22:02:47.786Z,93.30
2018-01-29T22:05:15.339Z,93.40
2018-01-29T22:07:43.994Z,93.20
2018-01-29T22:10:11.936Z,93.20
2018-01-29T22:12:40.249Z,93.30
2018-01-29T22:15:07.810Z,93.10
2018-01-29T22:17:35.812Z,93.00
2018-01-29T22:20:03.373Z,92.80
2018-01-29T22:22:31.780Z,92.80
2018-01-29T22:24:59.350Z,92.80
2018-01-29T22:27:26.865Z,92.80
2018-01-29T22:29:54.433Z,92.80
2018-01-29T22:32:21.978Z,93.20
2018-01-29T22:34:50.273Z,93.40
2018-01-29T22:37:18.087Z,93.40
2018-01-29T22:39:45.632Z,93.50
2018-01-29T22:42:13.155Z,93.60
2018-01-29T22:44:41.641Z,93.60
2018-01-29T22:47:09.920Z,93.60
2018-01-29T22:49:37.485Z,93.60
2018-01-29T22:52:05.845Z,94.00
2018-01-29T22:54:33.353Z,93.40
2018-01-29T22:57:00.900Z,93.70
2018-01-29T22:59:29.523Z,93.80
2018-01-29T23:01:57.052Z,93.80
2018-01-29T23:04:25.357Z,93.70
2018-01-29T23:06:52.913Z,93.70
2018-01-29T23:09:21.206Z,93.90
2018-01-29T23:11:48.782Z,93.90
2018-01-29T23:14:17.117Z,93.90
2018-01-29T23:16:44.636Z,94.10
2018-01-29T23:19:12.263Z,93.90
2018-01-29T23:21:40.550Z,94.20
2018-01-29T23:24:09.005Z,94.30
2018-01-29T23:26:36.559Z,94.30
2018-01-29T23:29:04.099Z,94.40
2018-01-29T23:31:31.804Z,94.30
2018-01-29T23:33:59.325Z,94.40
2018-01-29T23:36:26.850Z,94.30
2018-01-29T23:38:54.388Z,94.50
2018-01-29T23:41:21.922Z,94.40
2018-01-29T23:43:49.691Z,94.40
2018-01-29T23:46:17.222Z,94.50
2018-01-29T23:48:45.540Z,94.60
2018-01-29T23:51:13.093Z,94.40
2018-01-29T23:53:40.621Z,94.50
2018-01-29T23:56:08.153Z,94.60
2018-01-29T23:58:36.449Z,94.50
